Arsenal, Pennsylvania
Current Conditions -  °F | °C
As of 6:53 AM on Saturday 25 Oct 2014 (Local Time) from KAGC Reporting Station
Broken Clouds Broken Clouds  
Wind Chill: 44°   Ceiling: 4000
Heat Index: 48°   Visibility: 10mi
Dew Point: 37°   Wind: 9mph
Humidity: 66%   Direction: 210°SSW
Pressure: 29.96"   Gusts: NA
Location:  40.4738°N, 79.952°W
Report Text: KAGC 251053Z AUTO 21008KT 10SM BKN040 09/03 A2996 RMK AO2 SLP152 T00890028 TSNO
Loading
Personal Weather Stations






























Interactive Weather Map
Tropical Storm Tracking
New forecast layout! Learn more

10-Day Weather Forecast

Advertisements
Track Severe Weather on mobile